Terminal Aerodrome Forecast
Issued by NWS Memphis, TN

Home | Current Version | Previous Version | Text Only | Print | Product List | Glossary On
Versions: 1 2 3 4 5 6 7 8 9 10 11 12 13 14 15 16 17 18 19 20 21 22 23 24 25 26 27 28 29 30 31
000
FTUS44 KMEG 062125 CCA
TAFMEM
TAF COR
KMEM 062125Z 0621/0718 36007KT P6SM BKN018 BKN250
     FM062300 01007KT P6SM SCT022 BKN250
     FM070500 03007KT P6SM SCT009 BKN015
      TEMPO 0709/0713 BKN009
     FM071500 05009KT P6SM SCT025 BKN150=

USA.gov is the U.S. government's official web portal to all federal, state and local government web resources and services.